Terminal Aerodrome Forecast
Issued by NWS

Home | Current Version | Previous Version | Text Only | Print | Product List | Glossary On
Versions: 1 2 3 4 5 6 7 8 9 10 11 12 13 14 15 16 17 18 19 20 21
000
FTUS44 KCRP 271720
TAFALI
TAF
KALI 271720Z 2718/2818 06006KT P6SM BKN050
     FM272000 10010KT P6SM VCTS BKN050CB
     FM280000 08008KT P6SM SCT050 BKN250
     FM280900 VRB03KT 5SM BR BKN018
     FM281300 36005KT P6SM SCT025=

USA.gov is the U.S. government's official web portal to all federal, state and local government web resources and services.